sensor_id;sensor_type;location;lat;lon;timestamp;pressure;altitude;pressure_sealevel;temperature
75273;BMP280;63869;52.344;16.928;2023-02-12T04:00:54;102513.91;;;6.91
75273;BMP280;63869;52.344;16.928;2023-02-12T04:03:20;102499.97;;;6.82
75273;BMP280;63869;52.344;16.928;2023-02-12T04:05:45;102518.31;;;6.87
75273;BMP280;63869;52.344;16.928;2023-02-12T04:08:11;102517.22;;;6.88
75273;BMP280;63869;52.344;16.928;2023-02-12T04:11:00;102522.53;;;6.88
75273;BMP280;63869;52.344;16.928;2023-02-12T04:16:34;102529.41;;;6.89
75273;BMP280;63869;52.344;16.928;2023-02-12T04:19:01;102535.06;;;6.87
75273;BMP280;63869;52.344;16.928;2023-02-12T04:21:37;102537.06;;;6.90
75273;BMP280;63869;52.344;16.928;2023-02-12T04:26:43;102531.41;;;6.80
75273;BMP280;63869;52.344;16.928;2023-02-12T04:32:14;102549.13;;;6.88
75273;BMP280;63869;52.344;16.928;2023-02-12T04:34:53;102541.81;;;6.85
75273;BMP280;63869;52.344;16.928;2023-02-12T04:37:29;102538.00;;;6.74
75273;BMP280;63869;52.344;16.928;2023-02-12T04:39:57;102540.34;;;6.75
75273;BMP280;63869;52.344;16.928;2023-02-12T04:42:24;102543.31;;;6.74
75273;BMP280;63869;52.344;16.928;2023-02-12T04:44:49;102540.00;;;6.65
75273;BMP280;63869;52.344;16.928;2023-02-12T04:47:15;102546.88;;;6.66
75273;BMP280;63869;52.344;16.928;2023-02-12T04:49:41;102559.06;;;6.67
75273;BMP280;63869;52.344;16.928;2023-02-12T04:52:07;102538.97;;;6.57
75273;BMP280;63869;52.344;16.928;2023-02-12T04:54:32;102554.19;;;6.69
75273;BMP280;63869;52.344;16.928;2023-02-12T04:56:58;102557.50;;;6.66
75273;BMP280;63869;52.344;16.928;2023-02-12T04:59:24;102539.38;;;6.47
75273;BMP280;63869;52.344;16.928;2023-02-12T05:01:49;102557.06;;;6.64
75273;BMP280;63869;52.344;16.928;2023-02-12T05:04:16;102555.94;;;6.65
75273;BMP280;63869;52.344;16.928;2023-02-12T05:06:42;102552.97;;;6.66
75273;BMP280;63869;52.344;16.928;2023-02-12T05:09:09;102564.03;;;6.68
75273;BMP280;63869;52.344;16.928;2023-02-12T05:11:37;102563.28;;;6.68
75273;BMP280;63869;52.344;16.928;2023-02-12T05:14:02;102567.69;;;6.76
75273;BMP280;63869;52.344;16.928;2023-02-12T05:16:27;102579.59;;;6.78
75273;BMP280;63869;52.344;16.928;2023-02-12T05:18:53;102578.50;;;6.79
75273;BMP280;63869;52.344;16.928;2023-02-12T05:21:18;102571.75;;;6.82
75273;BMP280;63869;52.344;16.928;2023-02-12T05:23:43;102582.38;;;6.82
75273;BMP280;63869;52.344;16.928;2023-02-12T05:26:18;102590.13;;;6.87
75273;BMP280;63869;52.344;16.928;2023-02-12T05:28:44;102597.78;;;6.88
75273;BMP280;63869;52.344;16.928;2023-02-12T05:31:12;102598.44;;;6.85
75273;BMP280;63869;52.344;16.928;2023-02-12T05:33:41;102595.84;;;6.77
75273;BMP280;63869;52.344;16.928;2023-02-12T05:36:09;102610.41;;;6.79
75273;BMP280;63869;52.344;16.928;2023-02-12T05:38:35;102614.94;;;6.79
75273;BMP280;63869;52.344;16.928;2023-02-12T05:41:05;102619.16;;;6.80
75273;BMP280;63869;52.344;16.928;2023-02-12T05:43:31;102611.16;;;6.80
75273;BMP280;63869;52.344;16.928;2023-02-12T05:46:04;102602.50;;;6.71
75273;BMP280;63869;52.344;16.928;2023-02-12T05:48:30;102626.91;;;6.85
75273;BMP280;63869;52.344;16.928;2023-02-12T05:51:09;102600.81;;;6.66
75273;BMP280;63869;52.344;16.928;2023-02-12T05:53:36;102643.31;;;6.87
75273;BMP280;63869;52.344;16.928;2023-02-12T05:56:35;102645.97;;;6.87
75273;BMP280;63869;52.344;16.928;2023-02-12T05:59:04;102659.50;;;6.82
75273;BMP280;63869;52.344;16.928;2023-02-12T06:01:33;102663.25;;;6.81
75273;BMP280;63869;52.344;16.928;2023-02-12T06:03:59;102650.22;;;6.67
75273;BMP280;63869;52.344;16.928;2023-02-12T06:06:26;102650.66;;;6.69
75273;BMP280;63869;52.344;16.928;2023-02-12T06:08:51;102669.38;;;6.73
75273;BMP280;63869;52.344;16.928;2023-02-12T06:11:17;102668.69;;;6.64
75273;BMP280;63869;52.344;16.928;2023-02-12T06:13:43;102672.44;;;6.63
75273;BMP280;63869;52.344;16.928;2023-02-12T06:16:35;102678.75;;;6.58
75273;BMP280;63869;52.344;16.928;2023-02-12T06:19:03;102660.25;;;6.41
75273;BMP280;63869;52.344;16.928;2023-02-12T06:21:29;102681.97;;;6.43
75273;BMP280;63869;52.344;16.928;2023-02-12T06:23:54;102688.06;;;6.43
75273;BMP280;63869;52.344;16.928;2023-02-12T06:26:22;102692.69;;;6.46
75273;BMP280;63869;52.344;16.928;2023-02-12T06:28:47;102694.91;;;6.44
75273;BMP280;63869;52.344;16.928;2023-02-12T06:33:48;102704.97;;;6.39
75273;BMP280;63869;52.344;16.928;2023-02-12T06:36:13;102708.25;;;6.36
75273;BMP280;63869;52.344;16.928;2023-02-12T06:38:39;102703.72;;;6.36
75273;BMP280;63869;52.344;16.928;2023-02-12T06:41:04;102698.28;;;6.33
75273;BMP280;63869;52.344;16.928;2023-02-12T06:43:30;102718.09;;;6.35
75273;BMP280;63869;52.344;16.928;2023-02-12T06:45:55;102688.06;;;6.14
75273;BMP280;63869;52.344;16.928;2023-02-12T06:48:20;102730.00;;;6.29
75273;BMP280;63869;52.344;16.928;2023-02-12T06:50:46;102726.44;;;6.25
75273;BMP280;63869;52.344;16.928;2023-02-12T06:53:11;102735.25;;;6.17
75273;BMP280;63869;52.344;16.928;2023-02-12T06:55:36;102717.66;;;6.04
75273;BMP280;63869;52.344;16.928;2023-02-12T06:58:02;102722.97;;;6.04
75273;BMP280;63869;52.344;16.928;2023-02-12T07:00:27;102727.16;;;5.96
75273;BMP280;63869;52.344;16.928;2023-02-12T07:02:54;102737.97;;;6.00
75273;BMP280;63869;52.344;16.928;2023-02-12T07:05:20;102730.59;;;5.96
75273;BMP280;63869;52.344;16.928;2023-02-12T07:07:46;102730.50;;;5.84
75273;BMP280;63869;52.344;16.928;2023-02-12T07:10:11;102733.50;;;5.74
75273;BMP280;63869;52.344;16.928;2023-02-12T07:12:37;102733.50;;;5.74
75273;BMP280;63869;52.344;16.928;2023-02-12T07:15:02;102733.50;;;5.66
75273;BMP280;63869;52.344;16.928;2023-02-12T07:17:28;102725.69;;;5.60
75273;BMP280;63869;52.344;16.928;2023-02-12T07:19:54;102723.34;;;5.59
75273;BMP280;63869;52.344;16.928;2023-02-12T07:22:20;102720.13;;;5.53
75273;BMP280;63869;52.344;16.928;2023-02-12T07:24:46;102727.13;;;5.58
75273;BMP280;63869;52.344;16.928;2023-02-12T07:27:12;102739.75;;;5.70
75273;BMP280;63869;52.344;16.928;2023-02-12T07:29:37;102742.56;;;5.73
75273;BMP280;63869;52.344;16.928;2023-02-12T07:32:02;102756.09;;;5.80
75273;BMP280;63869;52.344;16.928;2023-02-12T07:34:28;102753.91;;;5.82
75273;BMP280;63869;52.344;16.928;2023-02-12T07:36:53;102751.56;;;5.81
75273;BMP280;63869;52.344;16.928;2023-02-12T07:39:18;102750.00;;;5.80
75273;BMP280;63869;52.344;16.928;2023-02-12T07:41:44;102758.13;;;5.83
75273;BMP280;63869;52.344;16.928;2023-02-12T07:44:10;102767.69;;;5.84
75273;BMP280;63869;52.344;16.928;2023-02-12T07:46:45;102772.50;;;5.82
75273;BMP280;63869;52.344;16.928;2023-02-12T07:49:14;102773.00;;;5.84
75273;BMP280;63869;52.344;16.928;2023-02-12T07:51:39;102781.22;;;5.91
75273;BMP280;63869;52.344;16.928;2023-02-12T07:54:05;102757.53;;;5.86
75273;BMP280;63869;52.344;16.928;2023-02-12T07:56:33;102780.91;;;6.02
75273;BMP280;63869;52.344;16.928;2023-02-12T07:59:04;102780.25;;;6.05
75273;BMP280;63869;52.344;16.928;2023-02-12T08:01:35;102782.75;;;6.10
75273;BMP280;63869;52.344;16.928;2023-02-12T08:04:03;102786.63;;;6.12
75273;BMP280;63869;52.344;16.928;2023-02-12T08:06:31;102780.41;;;6.17
75273;BMP280;63869;52.344;16.928;2023-02-12T08:08:58;102774.59;;;6.15
75273;BMP280;63869;52.344;16.928;2023-02-12T08:11:26;102778.59;;;6.29
75273;BMP280;63869;52.344;16.928;2023-02-12T08:13:52;102776.72;;;6.30
75273;BMP280;63869;52.344;16.928;2023-02-12T08:16:20;102785.72;;;6.46
75273;BMP280;63869;52.344;16.928;2023-02-12T08:18:46;102785.69;;;6.55
75273;BMP280;63869;52.344;16.928;2023-02-12T08:21:15;102786.13;;;6.66
75273;BMP280;63869;52.344;16.928;2023-02-12T08:23:42;102791.56;;;6.69
75273;BMP280;63869;52.344;16.928;2023-02-12T08:26:12;102781.03;;;6.73
75273;BMP280;63869;52.344;16.928;2023-02-12T08:28:41;102790.13;;;6.72
75273;BMP280;63869;52.344;16.928;2023-02-12T08:31:11;102787.91;;;6.74
75273;BMP280;63869;52.344;16.928;2023-02-12T08:33:38;102799.00;;;6.84
75273;BMP280;63869;52.344;16.928;2023-02-12T08:36:07;102799.47;;;6.78
75273;BMP280;63869;52.344;16.928;2023-02-12T08:38:34;102802.63;;;6.71
75273;BMP280;63869;52.344;16.928;2023-02-12T08:41:21;102798.31;;;6.67
75273;BMP280;63869;52.344;16.928;2023-02-12T08:43:47;102789.59;;;6.57
75273;BMP280;63869;52.344;16.928;2023-02-12T08:46:18;102790.69;;;6.56
75273;BMP280;63869;52.344;16.928;2023-02-12T08:48:44;102781.81;;;6.52
75273;BMP280;63869;52.344;16.928;2023-02-12T08:51:16;102806.44;;;6.61
75273;BMP280;63869;52.344;16.928;2023-02-12T08:53:44;102797.53;;;6.66
75273;BMP280;63869;52.344;16.928;2023-02-12T08:56:11;102805.97;;;6.68
75273;BMP280;63869;52.344;16.928;2023-02-12T08:58:37;102807.16;;;6.79
75273;BMP280;63869;52.344;16.928;2023-02-12T09:01:05;102789.16;;;6.76
75273;BMP280;63869;52.344;16.928;2023-02-12T09:03:33;102802.09;;;6.86
75273;BMP280;63869;52.344;16.928;2023-02-12T09:06:01;102809.88;;;6.91
75273;BMP280;63869;52.344;16.928;2023-02-12T09:08:27;102799.75;;;6.85
75273;BMP280;63869;52.344;16.928;2023-02-12T09:10:52;102814.41;;;6.91
75273;BMP280;63869;52.344;16.928;2023-02-12T09:13:17;102804.09;;;6.89
75273;BMP280;63869;52.344;16.928;2023-02-12T09:15:44;102805.34;;;6.92
75273;BMP280;63869;52.344;16.928;2023-02-12T09:18:12;102823.56;;;7.02
75273;BMP280;63869;52.344;16.928;2023-02-12T09:20:40;102824.16;;;7.08
75273;BMP280;63869;52.344;16.928;2023-02-12T09:23:06;102802.06;;;6.95
75273;BMP280;63869;52.344;16.928;2023-02-12T09:25:33;102827.16;;;7.06
75273;BMP280;63869;52.344;16.928;2023-02-12T09:27:59;102825.28;;;7.07
75273;BMP280;63869;52.344;16.928;2023-02-12T09:30:25;102828.19;;;7.14
75273;BMP280;63869;52.344;16.928;2023-02-12T09:32:50;102836.78;;;7.19
75273;BMP280;63869;52.344;16.928;2023-02-12T09:35:15;102820.53;;;7.12
75273;BMP280;63869;52.344;16.928;2023-02-12T09:37:43;102843.13;;;7.27
75273;BMP280;63869;52.344;16.928;2023-02-12T09:40:19;102842.19;;;7.23
75273;BMP280;63869;52.344;16.928;2023-02-12T09:45:20;102839.50;;;7.32
75273;BMP280;63869;52.344;16.928;2023-02-12T09:48:03;102834.25;;;7.44
75273;BMP280;63869;52.344;16.928;2023-02-12T09:50:43;102835.44;;;7.46
75273;BMP280;63869;52.344;16.928;2023-02-12T09:53:16;102822.22;;;7.38
75273;BMP280;63869;52.344;16.928;2023-02-12T09:55:43;102833.50;;;7.55
75273;BMP280;63869;52.344;16.928;2023-02-12T09:58:13;102815.84;;;7.51
75273;BMP280;63869;52.344;16.928;2023-02-12T10:00:40;102813.22;;;7.63
75273;BMP280;63869;52.344;16.928;2023-02-12T10:03:11;102830.81;;;7.76
75273;BMP280;63869;52.344;16.928;2023-02-12T10:05:40;102812.47;;;7.63
75273;BMP280;63869;52.344;16.928;2023-02-12T10:13:50;102827.59;;;7.83
75273;BMP280;63869;52.344;16.928;2023-02-12T10:22:37;102815.72;;;7.80
75273;BMP280;63869;52.344;16.928;2023-02-12T10:27:42;102830.41;;;7.99
75273;BMP280;63869;52.344;16.928;2023-02-12T10:30:17;102831.28;;;8.03
75273;BMP280;63869;52.344;16.928;2023-02-12T10:32:46;102829.09;;;8.05
75273;BMP280;63869;52.344;16.928;2023-02-12T10:35:15;102825.53;;;8.13
75273;BMP280;63869;52.344;16.928;2023-02-12T10:38:03;102812.66;;;8.15
75273;BMP280;63869;52.344;16.928;2023-02-12T10:40:31;102818.59;;;8.33
75273;BMP280;63869;52.344;16.928;2023-02-12T10:42:59;102822.59;;;8.39
75273;BMP280;63869;52.344;16.928;2023-02-12T10:45:37;102828.03;;;8.42
75273;BMP280;63869;52.344;16.928;2023-02-12T10:48:15;102824.22;;;8.43
75273;BMP280;63869;52.344;16.928;2023-02-12T10:50:48;102830.56;;;8.51
75273;BMP280;63869;52.344;16.928;2023-02-12T10:53:29;102818.25;;;8.46
75273;BMP280;63869;52.344;16.928;2023-02-12T10:58:57;102819.59;;;8.40
75273;BMP280;63869;52.344;16.928;2023-02-12T11:01:26;102813.59;;;8.31
75273;BMP280;63869;52.344;16.928;2023-02-12T11:03:58;102803.47;;;8.24
75273;BMP280;63869;52.344;16.928;2023-02-12T11:06:27;102805.13;;;8.17
75273;BMP280;63869;52.344;16.928;2023-02-12T11:08:53;102812.47;;;8.20
75273;BMP280;63869;52.344;16.928;2023-02-12T11:11:21;102821.34;;;8.24
75273;BMP280;63869;52.344;16.928;2023-02-12T11:14:04;102826.44;;;8.17
75273;BMP280;63869;52.344;16.928;2023-02-12T11:16:34;102828.91;;;8.10
75273;BMP280;63869;52.344;16.928;2023-02-12T11:19:02;102821.97;;;7.97
75273;BMP280;63869;52.344;16.928;2023-02-12T11:21:29;102825.06;;;7.86
75273;BMP280;63869;52.344;16.928;2023-02-12T11:23:55;102812.13;;;7.64
75273;BMP280;63869;52.344;16.928;2023-02-12T11:26:25;102817.94;;;7.45
75273;BMP280;63869;52.344;16.928;2023-02-12T11:31:31;102816.38;;;7.03
75273;BMP280;63869;52.344;16.928;2023-02-12T11:34:14;102820.69;;;6.95
75273;BMP280;63869;52.344;16.928;2023-02-12T11:36:42;102824.81;;;6.84
75273;BMP280;63869;52.344;16.928;2023-02-12T11:39:32;102831.09;;;6.79
75273;BMP280;63869;52.344;16.928;2023-02-12T11:42:05;102819.25;;;6.59
75273;BMP280;63869;52.344;16.928;2023-02-12T11:44:39;102808.53;;;6.56
75273;BMP280;63869;52.344;16.928;2023-02-12T11:47:08;102803.78;;;6.61
75273;BMP280;63869;52.344;16.928;2023-02-12T11:49:49;102811.84;;;6.74
75273;BMP280;63869;52.344;16.928;2023-02-12T11:52:19;102806.06;;;6.72
75273;BMP280;63869;52.344;16.928;2023-02-12T11:54:46;102807.94;;;6.80
75273;BMP280;63869;52.344;16.928;2023-02-12T11:57:35;102817.16;;;6.82
75273;BMP280;63869;52.344;16.928;2023-02-12T12:00:04;102807.63;;;6.73
75273;BMP280;63869;52.344;16.928;2023-02-12T12:02:36;102800.81;;;6.63
75273;BMP280;63869;52.344;16.928;2023-02-12T12:05:11;102800.22;;;6.57
75273;BMP280;63869;52.344;16.928;2023-02-12T12:07:42;102790.69;;;6.56
75273;BMP280;63869;52.344;16.928;2023-02-12T12:10:21;102802.53;;;6.59
75273;BMP280;63869;52.344;16.928;2023-02-12T12:13:00;102805.19;;;6.68
75273;BMP280;63869;52.344;16.928;2023-02-12T12:15:33;102801.88;;;6.71
75273;BMP280;63869;52.344;16.928;2023-02-12T12:21:31;102806.69;;;6.98
75273;BMP280;63869;52.344;16.928;2023-02-12T12:26:39;102799.00;;;7.05
75273;BMP280;63869;52.344;16.928;2023-02-12T12:29:26;102795.50;;;7.13
75273;BMP280;63869;52.344;16.928;2023-02-12T12:31:58;102794.63;;;7.21
75273;BMP280;63869;52.344;16.928;2023-02-12T12:34:26;102787.06;;;7.32
75273;BMP280;63869;52.344;16.928;2023-02-12T12:43:02;102777.78;;;7.83
75273;BMP280;63869;52.344;16.928;2023-02-12T12:48:53;102783.91;;;7.96
75273;BMP280;63869;52.344;16.928;2023-02-12T12:51:31;102786.00;;;8.03
75273;BMP280;63869;52.344;16.928;2023-02-12T12:54:32;102785.47;;;7.97
75273;BMP280;63869;52.344;16.928;2023-02-12T13:00:20;102773.28;;;8.08
75273;BMP280;63869;52.344;16.928;2023-02-12T13:11:22;102765.38;;;8.12
75273;BMP280;63869;52.344;16.928;2023-02-12T13:14:20;102756.84;;;8.06
75273;BMP280;63869;52.344;16.928;2023-02-12T13:17:04;102749.38;;;8.00
75273;BMP280;63869;52.344;16.928;2023-02-12T13:22:47;102757.16;;;8.17
75273;BMP280;63869;52.344;16.928;2023-02-12T13:28:03;102741.59;;;8.19
75273;BMP280;63869;52.344;16.928;2023-02-12T13:30:38;102724.66;;;8.11
75273;BMP280;63869;52.344;16.928;2023-02-12T13:33:14;102740.28;;;8.25
75273;BMP280;63869;52.344;16.928;2023-02-12T13:35:45;102743.50;;;8.31
75273;BMP280;63869;52.344;16.928;2023-02-12T13:38:19;102741.50;;;8.27
75273;BMP280;63869;52.344;16.928;2023-02-12T13:40:45;102737.84;;;8.32
75273;BMP280;63869;52.344;16.928;2023-02-12T13:45:57;102743.19;;;8.20
75273;BMP280;63869;52.344;16.928;2023-02-12T13:56:59;102744.16;;;7.91
75273;BMP280;63869;52.344;16.928;2023-02-12T14:02:02;102747.03;;;7.74
75273;BMP280;63869;52.344;16.928;2023-02-12T14:04:40;102745.78;;;7.71
75273;BMP280;63869;52.344;16.928;2023-02-12T14:07:12;102737.56;;;7.64
75273;BMP280;63869;52.344;16.928;2023-02-12T14:10:00;102750.00;;;7.72
75273;BMP280;63869;52.344;16.928;2023-02-12T14:15:15;102749.47;;;7.67
75273;BMP280;63869;52.344;16.928;2023-02-12T14:17:54;102749.53;;;7.58
75273;BMP280;63869;52.344;16.928;2023-02-12T14:23:24;102757.97;;;7.60
75273;BMP280;63869;52.344;16.928;2023-02-12T14:26:01;102752.59;;;7.48
75273;BMP280;63869;52.344;16.928;2023-02-12T14:28:33;102760.41;;;7.53
75273;BMP280;63869;52.344;16.928;2023-02-12T14:33:57;102762.38;;;7.44
75273;BMP280;63869;52.344;16.928;2023-02-12T14:47:13;102771.09;;;7.11
75273;BMP280;63869;52.344;16.928;2023-02-12T14:49:45;102769.53;;;7.10
75273;BMP280;63869;52.344;16.928;2023-02-12T14:52:18;102768.63;;;7.06
75273;BMP280;63869;52.344;16.928;2023-02-12T14:54:59;102752.78;;;6.89
75273;BMP280;63869;52.344;16.928;2023-02-12T14:57:38;102752.13;;;6.92
75273;BMP280;63869;52.344;16.928;2023-02-12T15:02:48;102768.09;;;6.92
75273;BMP280;63869;52.344;16.928;2023-02-12T15:05:22;102764.06;;;6.86
75273;BMP280;63869;52.344;16.928;2023-02-12T15:07:55;102775.06;;;6.84
75273;BMP280;63869;52.344;16.928;2023-02-12T15:10:27;102772.25;;;6.81
75273;BMP280;63869;52.344;16.928;2023-02-12T15:13:05;102768.75;;;6.68
75273;BMP280;63869;52.344;16.928;2023-02-12T15:15:37;102775.94;;;6.68
75273;BMP280;63869;52.344;16.928;2023-02-12T15:18:28;102769.53;;;6.69
75273;BMP280;63869;52.344;16.928;2023-02-12T15:21:18;102772.75;;;6.74
75273;BMP280;63869;52.344;16.928;2023-02-12T15:23:46;102779.47;;;6.72
75273;BMP280;63869;52.344;16.928;2023-02-12T15:26:17;102773.91;;;6.65
75273;BMP280;63869;52.344;16.928;2023-02-12T15:28:48;102753.16;;;6.58
75273;BMP280;63869;52.344;16.928;2023-02-12T15:31:16;102765.94;;;6.65
75273;BMP280;63869;52.344;16.928;2023-02-12T15:33:50;102759.06;;;6.64
75273;BMP280;63869;52.344;16.928;2023-02-12T15:36:19;102763.59;;;6.63
75273;BMP280;63869;52.344;16.928;2023-02-12T15:38:50;102762.81;;;6.63
75273;BMP280;63869;52.344;16.928;2023-02-12T15:43:58;102765.31;;;6.59
75273;BMP280;63869;52.344;16.928;2023-02-12T15:46:24;102763.91;;;6.61
75273;BMP280;63869;52.344;16.928;2023-02-12T15:48:49;102751.59;;;6.57
75273;BMP280;63869;52.344;16.928;2023-02-12T15:51:31;102753.59;;;6.60
75273;BMP280;63869;52.344;16.928;2023-02-12T15:53:58;102760.94;;;6.63
75273;BMP280;63869;52.344;16.928;2023-02-12T15:56:25;102748.34;;;6.51
75273;BMP280;63869;52.344;16.928;2023-02-12T15:58:53;102734.19;;;6.39
75273;BMP280;63869;52.344;16.928;2023-02-12T16:01:22;102776.13;;;6.63
75273;BMP280;63869;52.344;16.928;2023-02-12T16:03:54;102759.91;;;6.55
75273;BMP280;63869;52.344;16.928;2023-02-12T16:06:21;102768.16;;;6.63
75273;BMP280;63869;52.344;16.928;2023-02-12T16:08:58;102761.09;;;6.67
75273;BMP280;63869;52.344;16.928;2023-02-12T16:11:27;102760.44;;;6.70
75273;BMP280;63869;52.344;16.928;2023-02-12T16:14:02;102751.38;;;6.71
75273;BMP280;63869;52.344;16.928;2023-02-12T16:16:40;102759.13;;;6.76
75273;BMP280;63869;52.344;16.928;2023-02-12T16:21:54;102762.25;;;6.78
75273;BMP280;63869;52.344;16.928;2023-02-12T16:24:32;102756.63;;;6.79
75273;BMP280;63869;52.344;16.928;2023-02-12T16:29:44;102762.88;;;6.83
75273;BMP280;63869;52.344;16.928;2023-02-12T16:32:26;102766.88;;;6.89
75273;BMP280;63869;52.344;16.928;2023-02-12T16:35:22;102775.47;;;6.95
75273;BMP280;63869;52.344;16.928;2023-02-12T16:37:51;102771.25;;;6.94
75273;BMP280;63869;52.344;16.928;2023-02-12T16:40:24;102784.25;;;6.87
75273;BMP280;63869;52.344;16.928;2023-02-12T16:50:31;102781.59;;;6.87
75273;BMP280;63869;52.344;16.928;2023-02-12T16:53:06;102785.94;;;6.91
75273;BMP280;63869;52.344;16.928;2023-02-12T16:55:32;102784.53;;;6.94
75273;BMP280;63869;52.344;16.928;2023-02-12T16:57:59;102782.00;;;6.98
75273;BMP280;63869;52.344;16.928;2023-02-12T17:00:24;102787.13;;;7.03
75273;BMP280;63869;52.344;16.928;2023-02-12T17:02:50;102782.13;;;7.01
75273;BMP280;63869;52.344;16.928;2023-02-12T17:05:18;102786.47;;;7.06
75273;BMP280;63869;52.344;16.928;2023-02-12T17:07:43;102771.88;;;6.91
75273;BMP280;63869;52.344;16.928;2023-02-12T17:10:13;102774.53;;;6.91
75273;BMP280;63869;52.344;16.928;2023-02-12T17:12:46;102778.22;;;6.99
75273;BMP280;63869;52.344;16.928;2023-02-12T17:15:18;102763.88;;;6.91
75273;BMP280;63869;52.344;16.928;2023-02-12T17:17:45;102784.00;;;7.01
75273;BMP280;63869;52.344;16.928;2023-02-12T17:20:11;102789.13;;;7.06
75273;BMP280;63869;52.344;16.928;2023-02-12T17:22:36;102780.47;;;6.97
75273;BMP280;63869;52.344;16.928;2023-02-12T17:25:03;102778.41;;;6.93
75273;BMP280;63869;52.344;16.928;2023-02-12T17:27:28;102785.47;;;6.89
75273;BMP280;63869;52.344;16.928;2023-02-12T17:29:54;102780.56;;;6.79
75273;BMP280;63869;52.344;16.928;2023-02-12T17:32:19;102797.31;;;6.80
75273;BMP280;63869;52.344;16.928;2023-02-12T17:34:44;102783.47;;;6.66
75273;BMP280;63869;52.344;16.928;2023-02-12T17:37:10;102799.22;;;6.71
75273;BMP280;63869;52.344;16.928;2023-02-12T17:39:35;102802.44;;;6.76
75273;BMP280;63869;52.344;16.928;2023-02-12T17:42:00;102784.88;;;6.63
75273;BMP280;63869;52.344;16.928;2023-02-12T17:44:26;102801.53;;;6.72
75273;BMP280;63869;52.344;16.928;2023-02-12T17:46:52;102806.41;;;6.70
75273;BMP280;63869;52.344;16.928;2023-02-12T17:49:17;102797.53;;;6.66
75273;BMP280;63869;52.344;16.928;2023-02-12T17:51:43;102784.38;;;6.61
75273;BMP280;63869;52.344;16.928;2023-02-12T17:54:08;102784.72;;;6.59
75273;BMP280;63869;52.344;16.928;2023-02-12T17:56:33;102796.56;;;6.62
75273;BMP280;63869;52.344;16.928;2023-02-12T17:58:59;102796.56;;;6.62
75273;BMP280;63869;52.344;16.928;2023-02-12T18:01:24;102788.03;;;6.56
75273;BMP280;63869;52.344;16.928;2023-02-12T18:03:50;102778.03;;;6.53
75273;BMP280;63869;52.344;16.928;2023-02-12T18:06:23;102789.44;;;6.54
75273;BMP280;63869;52.344;16.928;2023-02-12T18:08:49;102791.78;;;6.55
75273;BMP280;63869;52.344;16.928;2023-02-12T18:11:14;102802.84;;;6.66
75273;BMP280;63869;52.344;16.928;2023-02-12T18:13:43;102796.81;;;6.78
75273;BMP280;63869;52.344;16.928;2023-02-12T18:16:09;102791.13;;;6.88
75273;BMP280;63869;52.344;16.928;2023-02-12T18:18:36;102797.75;;;7.03
75273;BMP280;63869;52.344;16.928;2023-02-12T18:21:06;102780.06;;;7.07
75273;BMP280;63869;52.344;16.928;2023-02-12T18:23:32;102796.53;;;7.21
75273;BMP280;63869;52.344;16.928;2023-02-12T18:25:57;102792.03;;;7.34
75273;BMP280;63869;52.344;16.928;2023-02-12T18:28:23;102793.53;;;7.43
75273;BMP280;63869;52.344;16.928;2023-02-12T18:30:55;102781.13;;;7.47
75273;BMP280;63869;52.344;16.928;2023-02-12T18:33:21;102788.38;;;7.59
75273;BMP280;63869;52.344;16.928;2023-02-12T18:36:00;102791.28;;;7.66
75273;BMP280;63869;52.344;16.928;2023-02-12T18:38:26;102784.69;;;7.51
75273;BMP280;63869;52.344;16.928;2023-02-12T18:40:53;102781.75;;;7.32
75273;BMP280;63869;52.344;16.928;2023-02-12T18:43:18;102776.09;;;7.13
75273;BMP280;63869;52.344;16.928;2023-02-12T18:45:43;102764.81;;;6.95
75273;BMP280;63869;52.344;16.928;2023-02-12T18:48:09;102790.31;;;6.96
75273;BMP280;63869;52.344;16.928;2023-02-12T18:50:36;102770.88;;;6.75
75273;BMP280;63869;52.344;16.928;2023-02-12T18:53:01;102779.47;;;6.72
75273;BMP280;63869;52.344;16.928;2023-02-12T18:55:26;102783.91;;;6.68
75273;BMP280;63869;52.344;16.928;2023-02-12T18:57:52;102795.19;;;6.65
75273;BMP280;63869;52.344;16.928;2023-02-12T19:00:18;102785.06;;;6.58
75273;BMP280;63869;52.344;16.928;2023-02-12T19:02:43;102790.38;;;6.58
75273;BMP280;63869;52.344;16.928;2023-02-12T19:05:09;102772.41;;;6.46
75273;BMP280;63869;52.344;16.928;2023-02-12T19:07:34;102784.16;;;6.45
75273;BMP280;63869;52.344;16.928;2023-02-12T19:09:59;102783.53;;;6.48
75273;BMP280;63869;52.344;16.928;2023-02-12T19:12:24;102789.63;;;6.49
75273;BMP280;63869;52.344;16.928;2023-02-12T19:14:50;102783.41;;;6.45
75273;BMP280;63869;52.344;16.928;2023-02-12T19:17:16;102787.75;;;6.49
75273;BMP280;63869;52.344;16.928;2023-02-12T19:19:41;102774.03;;;6.39
75273;BMP280;63869;52.344;16.928;2023-02-12T19:22:07;102779.50;;;6.42
75273;BMP280;63869;52.344;16.928;2023-02-12T19:24:32;102793.84;;;6.50
75273;BMP280;63869;52.344;16.928;2023-02-12T19:26:58;102784.91;;;6.46
75273;BMP280;63869;52.344;16.928;2023-02-12T19:29:23;102779.03;;;6.40
75273;BMP280;63869;52.344;16.928;2023-02-12T19:31:49;102789.94;;;6.47
75273;BMP280;63869;52.344;16.928;2023-02-12T19:34:17;102787.28;;;6.47
75273;BMP280;63869;52.344;16.928;2023-02-12T19:36:44;102791.03;;;6.46
75273;BMP280;63869;52.344;16.928;2023-02-12T19:39:12;102781.06;;;6.43
75273;BMP280;63869;52.344;16.928;2023-02-12T19:41:37;102789.94;;;6.47
75273;BMP280;63869;52.344;16.928;2023-02-12T19:44:05;102793.53;;;6.51
75273;BMP280;63869;52.344;16.928;2023-02-12T19:46:31;102767.94;;;6.38
75273;BMP280;63869;52.344;16.928;2023-02-12T19:49:00;102787.13;;;6.52
75273;BMP280;63869;52.344;16.928;2023-02-12T19:51:27;102766.06;;;6.39
75273;BMP280;63869;52.344;16.928;2023-02-12T19:53:54;102783.84;;;6.47
75273;BMP280;63869;52.344;16.928;2023-02-12T19:56:23;102774.19;;;6.42
75273;BMP280;63869;52.344;16.928;2023-02-12T19:58:49;102777.31;;;6.44
75273;BMP280;63869;52.344;16.928;2023-02-12T20:01:17;102776.03;;;6.50
75273;BMP280;63869;52.344;16.928;2023-02-12T20:03:45;102753.09;;;6.37
75273;BMP280;63869;52.344;16.928;2023-02-12T20:06:23;102778.69;;;6.50
75273;BMP280;63869;52.344;16.928;2023-02-12T20:08:49;102774.28;;;6.46